sensor_id;sensor_type;location;lat;lon;timestamp;temperature;humidity
43987;DHT22;29650;47.378;8.300;2023-06-22T00:00:12;22.40;99.90
43987;DHT22;29650;47.378;8.300;2023-06-22T00:02:39;22.40;99.90
43987;DHT22;29650;47.378;8.300;2023-06-22T00:05:07;22.30;99.90
43987;DHT22;29650;47.378;8.300;2023-06-22T00:07:34;22.30;99.90
43987;DHT22;29650;47.378;8.300;2023-06-22T00:10:01;22.20;99.90
43987;DHT22;29650;47.378;8.300;2023-06-22T00:12:27;22.10;99.90
43987;DHT22;29650;47.378;8.300;2023-06-22T00:14:56;21.90;99.90
43987;DHT22;29650;47.378;8.300;2023-06-22T00:17:23;21.90;99.90
43987;DHT22;29650;47.378;8.300;2023-06-22T00:19:50;21.70;99.90
43987;DHT22;29650;47.378;8.300;2023-06-22T00:22:19;21.90;99.90
43987;DHT22;29650;47.378;8.300;2023-06-22T00:24:54;21.80;99.90
43987;DHT22;29650;47.378;8.300;2023-06-22T00:27:21;21.80;99.90
43987;DHT22;29650;47.378;8.300;2023-06-22T00:29:48;21.70;99.90
43987;DHT22;29650;47.378;8.300;2023-06-22T00:32:16;21.80;99.90
43987;DHT22;29650;47.378;8.300;2023-06-22T00:34:44;21.70;99.90
43987;DHT22;29650;47.378;8.300;2023-06-22T00:37:11;21.60;99.90
43987;DHT22;29650;47.378;8.300;2023-06-22T00:39:38;21.70;99.90
43987;DHT22;29650;47.378;8.300;2023-06-22T00:42:05;21.70;99.90
43987;DHT22;29650;47.378;8.300;2023-06-22T00:44:32;21.60;99.90
43987;DHT22;29650;47.378;8.300;2023-06-22T00:46:59;21.50;99.90
43987;DHT22;29650;47.378;8.300;2023-06-22T00:49:28;21.30;99.90
43987;DHT22;29650;47.378;8.300;2023-06-22T00:51:56;21.40;99.90
43987;DHT22;29650;47.378;8.300;2023-06-22T00:54:24;21.20;99.90
43987;DHT22;29650;47.378;8.300;2023-06-22T00:56:51;21.20;99.90
43987;DHT22;29650;47.378;8.300;2023-06-22T00:59:21;21.00;99.90
43987;DHT22;29650;47.378;8.300;2023-06-22T01:01:48;20.90;99.90
43987;DHT22;29650;47.378;8.300;2023-06-22T01:04:16;21.00;99.90
43987;DHT22;29650;47.378;8.300;2023-06-22T01:06:51;21.10;99.90
43987;DHT22;29650;47.378;8.300;2023-06-22T01:09:25;21.10;99.90
43987;DHT22;29650;47.378;8.300;2023-06-22T01:11:56;21.00;99.90
43987;DHT22;29650;47.378;8.300;2023-06-22T01:14:28;21.00;99.90
43987;DHT22;29650;47.378;8.300;2023-06-22T01:16:57;21.00;99.90
43987;DHT22;29650;47.378;8.300;2023-06-22T01:19:35;20.90;99.90
43987;DHT22;29650;47.378;8.300;2023-06-22T01:22:07;21.00;99.90
43987;DHT22;29650;47.378;8.300;2023-06-22T01:24:48;21.00;99.90
43987;DHT22;29650;47.378;8.300;2023-06-22T01:27:33;21.00;99.90
43987;DHT22;29650;47.378;8.300;2023-06-22T01:30:09;21.00;99.90
43987;DHT22;29650;47.378;8.300;2023-06-22T01:32:38;20.90;99.90
43987;DHT22;29650;47.378;8.300;2023-06-22T01:35:07;21.00;99.90
43987;DHT22;29650;47.378;8.300;2023-06-22T01:37:36;21.00;99.90
43987;DHT22;29650;47.378;8.300;2023-06-22T01:40:04;20.90;99.90
43987;DHT22;29650;47.378;8.300;2023-06-22T01:42:32;20.90;99.90
43987;DHT22;29650;47.378;8.300;2023-06-22T01:45:00;20.90;99.90
43987;DHT22;29650;47.378;8.300;2023-06-22T01:47:29;20.80;99.90
43987;DHT22;29650;47.378;8.300;2023-06-22T01:49:56;20.80;99.90
43987;DHT22;29650;47.378;8.300;2023-06-22T01:52:23;20.60;99.90
43987;DHT22;29650;47.378;8.300;2023-06-22T01:54:50;20.90;99.90
43987;DHT22;29650;47.378;8.300;2023-06-22T01:57:17;20.60;99.90
43987;DHT22;29650;47.378;8.300;2023-06-22T01:59:50;20.50;99.90
43987;DHT22;29650;47.378;8.300;2023-06-22T02:02:20;20.50;99.90
43987;DHT22;29650;47.378;8.300;2023-06-22T02:04:57;20.50;99.90
43987;DHT22;29650;47.378;8.300;2023-06-22T02:07:29;20.60;99.90
43987;DHT22;29650;47.378;8.300;2023-06-22T02:09:59;20.70;99.90
43987;DHT22;29650;47.378;8.300;2023-06-22T02:12:29;20.50;99.90
43987;DHT22;29650;47.378;8.300;2023-06-22T02:14:58;20.50;99.90
43987;DHT22;29650;47.378;8.300;2023-06-22T02:17:26;20.40;99.90
43987;DHT22;29650;47.378;8.300;2023-06-22T02:19:54;20.50;99.90
43987;DHT22;29650;47.378;8.300;2023-06-22T02:22:22;20.30;99.90
43987;DHT22;29650;47.378;8.300;2023-06-22T02:24:49;20.20;99.90
43987;DHT22;29650;47.378;8.300;2023-06-22T02:27:16;20.40;99.90
43987;DHT22;29650;47.378;8.300;2023-06-22T02:29:43;20.20;99.90
43987;DHT22;29650;47.378;8.300;2023-06-22T02:32:10;20.00;99.90
43987;DHT22;29650;47.378;8.300;2023-06-22T02:34:37;20.10;99.90
43987;DHT22;29650;47.378;8.300;2023-06-22T02:37:05;20.00;99.90
43987;DHT22;29650;47.378;8.300;2023-06-22T02:39:32;20.20;99.90
43987;DHT22;29650;47.378;8.300;2023-06-22T02:41:59;20.20;99.90
43987;DHT22;29650;47.378;8.300;2023-06-22T02:44:26;20.20;99.90
43987;DHT22;29650;47.378;8.300;2023-06-22T02:46:53;20.20;99.90
43987;DHT22;29650;47.378;8.300;2023-06-22T02:49:20;20.30;99.90
43987;DHT22;29650;47.378;8.300;2023-06-22T02:51:48;20.30;99.90
43987;DHT22;29650;47.378;8.300;2023-06-22T02:54:16;20.10;99.90
43987;DHT22;29650;47.378;8.300;2023-06-22T02:56:43;20.00;99.90
43987;DHT22;29650;47.378;8.300;2023-06-22T02:59:10;20.20;99.90
43987;DHT22;29650;47.378;8.300;2023-06-22T03:01:37;20.00;99.90
43987;DHT22;29650;47.378;8.300;2023-06-22T03:04:06;19.90;99.90
43987;DHT22;29650;47.378;8.300;2023-06-22T03:06:33;19.80;99.90
43987;DHT22;29650;47.378;8.300;2023-06-22T03:09:03;19.80;99.90
43987;DHT22;29650;47.378;8.300;2023-06-22T03:11:32;19.90;99.90
43987;DHT22;29650;47.378;8.300;2023-06-22T03:14:00;20.00;99.90
43987;DHT22;29650;47.378;8.300;2023-06-22T03:16:28;19.90;99.90
43987;DHT22;29650;47.378;8.300;2023-06-22T03:18:55;20.10;99.90
43987;DHT22;29650;47.378;8.300;2023-06-22T03:21:23;20.10;99.90
43987;DHT22;29650;47.378;8.300;2023-06-22T03:23:50;20.00;99.90
43987;DHT22;29650;47.378;8.300;2023-06-22T03:26:18;19.90;99.90
43987;DHT22;29650;47.378;8.300;2023-06-22T03:28:46;19.90;99.90
43987;DHT22;29650;47.378;8.300;2023-06-22T03:31:13;20.00;99.90
43987;DHT22;29650;47.378;8.300;2023-06-22T03:33:40;19.90;99.90
43987;DHT22;29650;47.378;8.300;2023-06-22T03:36:07;19.80;99.90
43987;DHT22;29650;47.378;8.300;2023-06-22T03:38:35;19.80;99.90
43987;DHT22;29650;47.378;8.300;2023-06-22T03:41:02;19.90;99.90
43987;DHT22;29650;47.378;8.300;2023-06-22T03:43:28;19.80;99.90
43987;DHT22;29650;47.378;8.300;2023-06-22T03:45:57;19.80;99.90
43987;DHT22;29650;47.378;8.300;2023-06-22T03:48:24;19.80;99.90
43987;DHT22;29650;47.378;8.300;2023-06-22T03:50:51;19.70;99.90
43987;DHT22;29650;47.378;8.300;2023-06-22T03:53:18;19.80;99.90
43987;DHT22;29650;47.378;8.300;2023-06-22T03:55:48;19.50;99.90
43987;DHT22;29650;47.378;8.300;2023-06-22T03:58:16;19.60;99.90
43987;DHT22;29650;47.378;8.300;2023-06-22T04:00:44;19.60;99.90
43987;DHT22;29650;47.378;8.300;2023-06-22T04:03:14;19.60;99.90
43987;DHT22;29650;47.378;8.300;2023-06-22T04:05:41;19.70;99.90
43987;DHT22;29650;47.378;8.300;2023-06-22T04:08:08;19.80;99.90
43987;DHT22;29650;47.378;8.300;2023-06-22T04:10:35;20.10;99.90
43987;DHT22;29650;47.378;8.300;2023-06-22T04:13:02;20.10;99.90
43987;DHT22;29650;47.378;8.300;2023-06-22T04:15:29;20.00;99.90
43987;DHT22;29650;47.378;8.300;2023-06-22T04:17:56;19.80;99.90
43987;DHT22;29650;47.378;8.300;2023-06-22T04:20:25;20.00;99.90
43987;DHT22;29650;47.378;8.300;2023-06-22T04:22:52;19.90;99.90
43987;DHT22;29650;47.378;8.300;2023-06-22T04:25:20;19.90;99.90
43987;DHT22;29650;47.378;8.300;2023-06-22T04:27:47;19.90;99.90
43987;DHT22;29650;47.378;8.300;2023-06-22T04:30:14;20.00;99.90
43987;DHT22;29650;47.378;8.300;2023-06-22T04:32:42;20.10;99.90
43987;DHT22;29650;47.378;8.300;2023-06-22T04:35:10;20.10;99.90
43987;DHT22;29650;47.378;8.300;2023-06-22T04:37:38;20.10;99.90
43987;DHT22;29650;47.378;8.300;2023-06-22T04:40:06;20.10;99.90
43987;DHT22;29650;47.378;8.300;2023-06-22T04:42:35;20.10;99.90
43987;DHT22;29650;47.378;8.300;2023-06-22T04:45:03;20.10;99.90
43987;DHT22;29650;47.378;8.300;2023-06-22T04:47:30;20.20;99.90
43987;DHT22;29650;47.378;8.300;2023-06-22T04:49:57;20.20;99.90
43987;DHT22;29650;47.378;8.300;2023-06-22T04:52:24;20.30;99.90
43987;DHT22;29650;47.378;8.300;2023-06-22T04:54:52;20.20;99.90
43987;DHT22;29650;47.378;8.300;2023-06-22T04:57:21;20.30;99.90
43987;DHT22;29650;47.378;8.300;2023-06-22T04:59:58;20.50;99.90
43987;DHT22;29650;47.378;8.300;2023-06-22T05:02:36;20.40;99.90
43987;DHT22;29650;47.378;8.300;2023-06-22T05:05:05;20.50;99.90
43987;DHT22;29650;47.378;8.300;2023-06-22T05:07:32;20.60;99.90
43987;DHT22;29650;47.378;8.300;2023-06-22T05:10:01;20.60;99.90
43987;DHT22;29650;47.378;8.300;2023-06-22T05:12:29;20.70;99.90
43987;DHT22;29650;47.378;8.300;2023-06-22T05:14:56;20.80;99.90
43987;DHT22;29650;47.378;8.300;2023-06-22T05:17:23;21.10;99.90
43987;DHT22;29650;47.378;8.300;2023-06-22T05:19:50;21.10;99.90
43987;DHT22;29650;47.378;8.300;2023-06-22T05:22:17;21.10;99.90
43987;DHT22;29650;47.378;8.300;2023-06-22T05:24:44;21.20;99.90
43987;DHT22;29650;47.378;8.300;2023-06-22T05:27:13;21.10;99.90
43987;DHT22;29650;47.378;8.300;2023-06-22T05:29:40;21.40;99.90
43987;DHT22;29650;47.378;8.300;2023-06-22T05:32:08;21.50;99.90
43987;DHT22;29650;47.378;8.300;2023-06-22T05:34:35;21.50;99.90
43987;DHT22;29650;47.378;8.300;2023-06-22T05:37:02;21.50;99.90
43987;DHT22;29650;47.378;8.300;2023-06-22T05:39:29;21.40;99.90
43987;DHT22;29650;47.378;8.300;2023-06-22T05:41:56;21.70;99.90
43987;DHT22;29650;47.378;8.300;2023-06-22T05:44:24;21.80;99.90
43987;DHT22;29650;47.378;8.300;2023-06-22T05:46:51;22.10;99.90
43987;DHT22;29650;47.378;8.300;2023-06-22T05:49:18;22.30;99.90
43987;DHT22;29650;47.378;8.300;2023-06-22T05:51:47;22.20;99.90
43987;DHT22;29650;47.378;8.300;2023-06-22T05:54:14;22.30;99.90
43987;DHT22;29650;47.378;8.300;2023-06-22T05:56:43;22.40;99.90
43987;DHT22;29650;47.378;8.300;2023-06-22T05:59:10;22.40;99.90
43987;DHT22;29650;47.378;8.300;2023-06-22T06:01:39;22.50;99.90
43987;DHT22;29650;47.378;8.300;2023-06-22T06:04:06;22.50;99.90
43987;DHT22;29650;47.378;8.300;2023-06-22T06:06:33;22.70;99.90
43987;DHT22;29650;47.378;8.300;2023-06-22T06:09:02;22.80;99.90
43987;DHT22;29650;47.378;8.300;2023-06-22T06:11:29;22.80;99.90
43987;DHT22;29650;47.378;8.300;2023-06-22T06:13:56;22.90;99.90
43987;DHT22;29650;47.378;8.300;2023-06-22T06:16:24;23.10;99.90
43987;DHT22;29650;47.378;8.300;2023-06-22T06:18:52;23.30;99.90
43987;DHT22;29650;47.378;8.300;2023-06-22T06:21:21;23.10;99.90
43987;DHT22;29650;47.378;8.300;2023-06-22T06:23:48;23.10;99.90
43987;DHT22;29650;47.378;8.300;2023-06-22T06:26:15;22.90;99.90
43987;DHT22;29650;47.378;8.300;2023-06-22T06:28:42;22.80;99.90
43987;DHT22;29650;47.378;8.300;2023-06-22T06:31:09;22.80;99.90
43987;DHT22;29650;47.378;8.300;2023-06-22T06:33:37;22.70;99.90
43987;DHT22;29650;47.378;8.300;2023-06-22T06:36:06;22.80;99.90
43987;DHT22;29650;47.378;8.300;2023-06-22T06:38:34;22.80;99.90
43987;DHT22;29650;47.378;8.300;2023-06-22T06:41:00;23.00;99.90
43987;DHT22;29650;47.378;8.300;2023-06-22T06:43:27;23.10;99.90
43987;DHT22;29650;47.378;8.300;2023-06-22T06:45:54;23.30;99.90
43987;DHT22;29650;47.378;8.300;2023-06-22T06:48:21;23.50;99.90
43987;DHT22;29650;47.378;8.300;2023-06-22T06:50:48;23.40;99.90
43987;DHT22;29650;47.378;8.300;2023-06-22T06:53:17;23.50;99.90
43987;DHT22;29650;47.378;8.300;2023-06-22T06:55:44;24.00;99.90
43987;DHT22;29650;47.378;8.300;2023-06-22T06:58:11;24.10;99.90
43987;DHT22;29650;47.378;8.300;2023-06-22T07:00:39;23.70;99.90
43987;DHT22;29650;47.378;8.300;2023-06-22T07:03:06;23.70;99.90
43987;DHT22;29650;47.378;8.300;2023-06-22T07:05:33;23.60;99.90
43987;DHT22;29650;47.378;8.300;2023-06-22T07:08:00;23.60;99.90
43987;DHT22;29650;47.378;8.300;2023-06-22T07:10:29;23.60;99.90
43987;DHT22;29650;47.378;8.300;2023-06-22T07:12:56;23.20;99.90
43987;DHT22;29650;47.378;8.300;2023-06-22T07:15:23;22.90;99.90
43987;DHT22;29650;47.378;8.300;2023-06-22T07:17:50;22.90;99.90
43987;DHT22;29650;47.378;8.300;2023-06-22T07:20:17;22.70;99.90
43987;DHT22;29650;47.378;8.300;2023-06-22T07:22:45;22.90;99.90
43987;DHT22;29650;47.378;8.300;2023-06-22T07:25:12;22.90;99.90
43987;DHT22;29650;47.378;8.300;2023-06-22T07:27:46;22.90;99.90
43987;DHT22;29650;47.378;8.300;2023-06-22T07:30:13;23.30;99.90
43987;DHT22;29650;47.378;8.300;2023-06-22T07:32:40;23.00;99.90
43987;DHT22;29650;47.378;8.300;2023-06-22T07:35:08;23.10;99.90
43987;DHT22;29650;47.378;8.300;2023-06-22T07:37:36;23.40;99.90
43987;DHT22;29650;47.378;8.300;2023-06-22T07:40:03;23.40;99.90
43987;DHT22;29650;47.378;8.300;2023-06-22T07:42:32;23.50;99.90
43987;DHT22;29650;47.378;8.300;2023-06-22T07:45:01;23.50;99.90
43987;DHT22;29650;47.378;8.300;2023-06-22T07:47:28;23.50;99.90
43987;DHT22;29650;47.378;8.300;2023-06-22T07:49:55;23.80;99.90
43987;DHT22;29650;47.378;8.300;2023-06-22T07:52:23;24.00;99.90
43987;DHT22;29650;47.378;8.300;2023-06-22T07:54:51;23.90;99.90
43987;DHT22;29650;47.378;8.300;2023-06-22T07:57:18;24.30;99.90
43987;DHT22;29650;47.378;8.300;2023-06-22T07:59:45;24.60;99.90
43987;DHT22;29650;47.378;8.300;2023-06-22T08:02:13;24.90;99.90
43987;DHT22;29650;47.378;8.300;2023-06-22T08:04:41;24.50;97.00
43987;DHT22;29650;47.378;8.300;2023-06-22T08:07:08;24.70;96.20
43987;DHT22;29650;47.378;8.300;2023-06-22T08:09:36;24.40;96.30
43987;DHT22;29650;47.378;8.300;2023-06-22T08:12:03;24.40;98.30
43987;DHT22;29650;47.378;8.300;2023-06-22T08:14:30;24.40;96.80
43987;DHT22;29650;47.378;8.300;2023-06-22T08:16:57;24.80;97.90
43987;DHT22;29650;47.378;8.300;2023-06-22T08:19:25;25.00;97.90
43987;DHT22;29650;47.378;8.300;2023-06-22T08:21:52;25.40;95.80
43987;DHT22;29650;47.378;8.300;2023-06-22T08:24:19;25.70;93.80
43987;DHT22;29650;47.378;8.300;2023-06-22T08:26:46;25.50;91.80
43987;DHT22;29650;47.378;8.300;2023-06-22T08:29:13;25.40;91.30
43987;DHT22;29650;47.378;8.300;2023-06-22T08:31:41;25.40;93.70
43987;DHT22;29650;47.378;8.300;2023-06-22T08:34:08;25.30;95.70
43987;DHT22;29650;47.378;8.300;2023-06-22T08:36:36;25.40;96.10
43987;DHT22;29650;47.378;8.300;2023-06-22T08:39:17;23.80;95.50
43987;DHT22;29650;47.378;8.300;2023-06-22T08:41:44;25.50;93.90
43987;DHT22;29650;47.378;8.300;2023-06-22T08:44:11;25.50;94.80
43987;DHT22;29650;47.378;8.300;2023-06-22T08:46:38;25.60;94.80
43987;DHT22;29650;47.378;8.300;2023-06-22T08:49:06;26.00;95.20
43987;DHT22;29650;47.378;8.300;2023-06-22T08:51:33;26.10;93.80
43987;DHT22;29650;47.378;8.300;2023-06-22T08:54:02;26.10;94.00
43987;DHT22;29650;47.378;8.300;2023-06-22T08:56:29;26.00;94.10
43987;DHT22;29650;47.378;8.300;2023-06-22T08:58:56;25.60;94.60
43987;DHT22;29650;47.378;8.300;2023-06-22T09:01:23;25.50;95.20
43987;DHT22;29650;47.378;8.300;2023-06-22T09:03:50;25.60;94.70
43987;DHT22;29650;47.378;8.300;2023-06-22T09:06:23;25.70;94.30
43987;DHT22;29650;47.378;8.300;2023-06-22T09:08:50;25.80;94.30
43987;DHT22;29650;47.378;8.300;2023-06-22T09:11:18;26.10;92.40
43987;DHT22;29650;47.378;8.300;2023-06-22T09:13:45;26.20;91.90
43987;DHT22;29650;47.378;8.300;2023-06-22T09:16:13;26.20;93.60
43987;DHT22;29650;47.378;8.300;2023-06-22T09:18:40;26.40;92.30
43987;DHT22;29650;47.378;8.300;2023-06-22T09:21:07;26.60;93.20
43987;DHT22;29650;47.378;8.300;2023-06-22T09:23:34;26.60;90.70
43987;DHT22;29650;47.378;8.300;2023-06-22T09:26:01;26.70;91.10
43987;DHT22;29650;47.378;8.300;2023-06-22T09:28:31;26.80;86.30
43987;DHT22;29650;47.378;8.300;2023-06-22T09:30:58;26.90;89.90
43987;DHT22;29650;47.378;8.300;2023-06-22T09:33:26;27.00;86.00
43987;DHT22;29650;47.378;8.300;2023-06-22T09:35:53;27.00;86.70
43987;DHT22;29650;47.378;8.300;2023-06-22T09:38:20;27.00;86.10
43987;DHT22;29650;47.378;8.300;2023-06-22T09:40:47;27.00;85.70
43987;DHT22;29650;47.378;8.300;2023-06-22T09:43:14;26.80;85.00
43987;DHT22;29650;47.378;8.300;2023-06-22T09:45:42;26.70;85.60
43987;DHT22;29650;47.378;8.300;2023-06-22T09:48:09;27.20;86.90
43987;DHT22;29650;47.378;8.300;2023-06-22T09:50:36;27.30;84.60
43987;DHT22;29650;47.378;8.300;2023-06-22T09:53:03;27.60;80.40
43987;DHT22;29650;47.378;8.300;2023-06-22T09:55:30;27.70;78.50
43987;DHT22;29650;47.378;8.300;2023-06-22T09:57:57;28.00;76.90
43987;DHT22;29650;47.378;8.300;2023-06-22T10:00:23;28.10;76.60
43987;DHT22;29650;47.378;8.300;2023-06-22T10:02:53;28.10;75.00
43987;DHT22;29650;47.378;8.300;2023-06-22T10:05:21;27.90;77.10
43987;DHT22;29650;47.378;8.300;2023-06-22T10:07:48;27.90;77.40
43987;DHT22;29650;47.378;8.300;2023-06-22T10:10:15;27.80;78.60
43987;DHT22;29650;47.378;8.300;2023-06-22T10:12:45;27.80;76.50
43987;DHT22;29650;47.378;8.300;2023-06-22T10:15:12;27.90;77.80
43987;DHT22;29650;47.378;8.300;2023-06-22T10:17:39;27.80;79.30
43987;DHT22;29650;47.378;8.300;2023-06-22T10:20:09;28.10;79.20
43987;DHT22;29650;47.378;8.300;2023-06-22T10:22:38;28.30;75.50
43987;DHT22;29650;47.378;8.300;2023-06-22T10:25:07;28.60;72.10
43987;DHT22;29650;47.378;8.300;2023-06-22T10:27:34;29.00;70.40
43987;DHT22;29650;47.378;8.300;2023-06-22T10:30:01;29.20;67.80
43987;DHT22;29650;47.378;8.300;2023-06-22T10:32:28;29.10;67.20
43987;DHT22;29650;47.378;8.300;2023-06-22T10:34:55;29.30;66.80
43987;DHT22;29650;47.378;8.300;2023-06-22T10:37:23;29.30;66.50
43987;DHT22;29650;47.378;8.300;2023-06-22T10:39:50;29.40;65.40
43987;DHT22;29650;47.378;8.300;2023-06-22T10:42:17;29.10;65.80
43987;DHT22;29650;47.378;8.300;2023-06-22T10:44:44;29.00;63.90
43987;DHT22;29650;47.378;8.300;2023-06-22T10:47:11;29.00;64.50
43987;DHT22;29650;47.378;8.300;2023-06-22T10:49:38;29.00;64.40
43987;DHT22;29650;47.378;8.300;2023-06-22T10:52:06;29.00;65.60
43987;DHT22;29650;47.378;8.300;2023-06-22T10:54:35;29.00;63.70
43987;DHT22;29650;47.378;8.300;2023-06-22T10:57:02;28.90;63.10
43987;DHT22;29650;47.378;8.300;2023-06-22T10:59:29;28.50;63.80
43987;DHT22;29650;47.378;8.300;2023-06-22T11:01:56;28.30;63.90
43987;DHT22;29650;47.378;8.300;2023-06-22T11:04:24;28.10;64.80
43987;DHT22;29650;47.378;8.300;2023-06-22T11:06:51;27.90;63.80
43987;DHT22;29650;47.378;8.300;2023-06-22T11:09:18;27.90;65.80
43987;DHT22;29650;47.378;8.300;2023-06-22T11:11:49;28.00;67.50
43987;DHT22;29650;47.378;8.300;2023-06-22T11:14:16;28.00;69.90
43987;DHT22;29650;47.378;8.300;2023-06-22T11:16:43;27.90;71.10
43987;DHT22;29650;47.378;8.300;2023-06-22T11:19:10;27.90;75.00
43987;DHT22;29650;47.378;8.300;2023-06-22T11:21:37;27.80;72.30
43987;DHT22;29650;47.378;8.300;2023-06-22T11:24:04;27.80;75.10
43987;DHT22;29650;47.378;8.300;2023-06-22T11:26:31;27.70;74.80
43987;DHT22;29650;47.378;8.300;2023-06-22T11:28:59;27.70;75.40
43987;DHT22;29650;47.378;8.300;2023-06-22T11:31:27;27.70;75.30
43987;DHT22;29650;47.378;8.300;2023-06-22T11:33:53;27.60;75.50
43987;DHT22;29650;47.378;8.300;2023-06-22T11:36:20;27.60;74.80
43987;DHT22;29650;47.378;8.300;2023-06-22T11:38:47;27.60;73.70
43987;DHT22;29650;47.378;8.300;2023-06-22T11:41:14;27.70;75.60
43987;DHT22;29650;47.378;8.300;2023-06-22T11:43:41;27.90;75.40
43987;DHT22;29650;47.378;8.300;2023-06-22T11:46:09;27.90;74.20
43987;DHT22;29650;47.378;8.300;2023-06-22T11:48:37;28.00;74.80
43987;DHT22;29650;47.378;8.300;2023-06-22T11:51:04;28.00;74.90
43987;DHT22;29650;47.378;8.300;2023-06-22T11:53:32;27.70;73.20
43987;DHT22;29650;47.378;8.300;2023-06-22T11:56:00;28.00;74.40
43987;DHT22;29650;47.378;8.300;2023-06-22T11:58:27;27.70;73.90
43987;DHT22;29650;47.378;8.300;2023-06-22T12:00:54;27.60;75.40
43987;DHT22;29650;47.378;8.300;2023-06-22T12:03:22;27.50;76.20
43987;DHT22;29650;47.378;8.300;2023-06-22T12:05:50;27.40;75.70
43987;DHT22;29650;47.378;8.300;2023-06-22T12:08:17;27.30;77.80
43987;DHT22;29650;47.378;8.300;2023-06-22T12:10:44;27.30;77.90
43987;DHT22;29650;47.378;8.300;2023-06-22T12:13:11;27.20;80.30
43987;DHT22;29650;47.378;8.300;2023-06-22T12:15:38;27.40;80.40
43987;DHT22;29650;47.378;8.300;2023-06-22T12:18:05;27.10;82.00
43987;DHT22;29650;47.378;8.300;2023-06-22T12:20:33;27.10;84.80
43987;DHT22;29650;47.378;8.300;2023-06-22T12:23:01;27.20;82.60
43987;DHT22;29650;47.378;8.300;2023-06-22T12:25:28;27.10;80.40
43987;DHT22;29650;47.378;8.300;2023-06-22T12:27:55;27.20;80.70
43987;DHT22;29650;47.378;8.300;2023-06-22T12:30:22;27.10;81.80
43987;DHT22;29650;47.378;8.300;2023-06-22T12:32:49;27.00;82.50
43987;DHT22;29650;47.378;8.300;2023-06-22T12:35:17;27.20;82.90
43987;DHT22;29650;47.378;8.300;2023-06-22T12:37:45;27.20;82.70
43987;DHT22;29650;47.378;8.300;2023-06-22T12:40:12;27.40;80.90
43987;DHT22;29650;47.378;8.300;2023-06-22T12:42:39;27.30;80.00
43987;DHT22;29650;47.378;8.300;2023-06-22T12:45:08;27.50;80.60
43987;DHT22;29650;47.378;8.300;2023-06-22T12:47:35;27.50;76.40
43987;DHT22;29650;47.378;8.300;2023-06-22T12:53:08;27.80;71.70
43987;DHT22;29650;47.378;8.300;2023-06-22T12:55:35;27.80;65.60
43987;DHT22;29650;47.378;8.300;2023-06-22T12:58:01;28.20;64.00
43987;DHT22;29650;47.378;8.300;2023-06-22T13:00:28;28.90;62.70
43987;DHT22;29650;47.378;8.300;2023-06-22T13:02:55;28.80;59.80
43987;DHT22;29650;47.378;8.300;2023-06-22T13:05:22;28.80;58.70
43987;DHT22;29650;47.378;8.300;2023-06-22T13:07:49;29.30;58.80
43987;DHT22;29650;47.378;8.300;2023-06-22T13:10:17;29.20;56.60
43987;DHT22;29650;47.378;8.300;2023-06-22T13:12:44;28.80;50.20
43987;DHT22;29650;47.378;8.300;2023-06-22T13:15:11;28.60;50.20
43987;DHT22;29650;47.378;8.300;2023-06-22T13:17:38;28.40;49.20
43987;DHT22;29650;47.378;8.300;2023-06-22T13:20:06;28.20;46.90
43987;DHT22;29650;47.378;8.300;2023-06-22T13:22:34;28.30;49.40
43987;DHT22;29650;47.378;8.300;2023-06-22T13:25:06;28.10;48.10
43987;DHT22;29650;47.378;8.300;2023-06-22T13:27:37;28.00;47.90
43987;DHT22;29650;47.378;8.300;2023-06-22T13:30:04;28.00;48.80
43987;DHT22;29650;47.378;8.300;2023-06-22T13:32:32;27.80;47.20
43987;DHT22;29650;47.378;8.300;2023-06-22T13:34:59;27.70;48.60
43987;DHT22;29650;47.378;8.300;2023-06-22T13:37:26;27.90;49.40
43987;DHT22;29650;47.378;8.300;2023-06-22T13:39:53;27.80;48.70
43987;DHT22;29650;47.378;8.300;2023-06-22T13:42:21;28.10;47.80
43987;DHT22;29650;47.378;8.300;2023-06-22T13:44:49;28.30;45.90
43987;DHT22;29650;47.378;8.300;2023-06-22T13:47:16;28.40;45.50
43987;DHT22;29650;47.378;8.300;2023-06-22T13:49:43;28.10;45.30
43987;DHT22;29650;47.378;8.300;2023-06-22T13:52:10;27.70;47.50
43987;DHT22;29650;47.378;8.300;2023-06-22T13:54:38;27.60;47.90
43987;DHT22;29650;47.378;8.300;2023-06-22T13:57:06;27.80;49.50
43987;DHT22;29650;47.378;8.300;2023-06-22T13:59:33;27.60;50.30
43987;DHT22;29650;47.378;8.300;2023-06-22T14:02:01;27.30;51.60
43987;DHT22;29650;47.378;8.300;2023-06-22T14:04:28;27.20;52.00
43987;DHT22;29650;47.378;8.300;2023-06-22T14:06:55;27.40;52.60
43987;DHT22;29650;47.378;8.300;2023-06-22T14:09:22;27.30;52.50
43987;DHT22;29650;47.378;8.300;2023-06-22T14:11:49;27.30;53.40
43987;DHT22;29650;47.378;8.300;2023-06-22T14:14:16;27.50;55.60
43987;DHT22;29650;47.378;8.300;2023-06-22T14:16:43;27.60;55.90
43987;DHT22;29650;47.378;8.300;2023-06-22T14:19:11;27.50;55.50
43987;DHT22;29650;47.378;8.300;2023-06-22T14:21:38;27.60;55.40
43987;DHT22;29650;47.378;8.300;2023-06-22T14:24:05;27.70;55.60
43987;DHT22;29650;47.378;8.300;2023-06-22T14:26:32;27.90;54.90
43987;DHT22;29650;47.378;8.300;2023-06-22T14:28:59;27.50;53.80
43987;DHT22;29650;47.378;8.300;2023-06-22T14:31:26;27.40;53.50
43987;DHT22;29650;47.378;8.300;2023-06-22T14:33:52;27.60;55.70
43987;DHT22;29650;47.378;8.300;2023-06-22T14:36:21;27.10;54.30
43987;DHT22;29650;47.378;8.300;2023-06-22T14:38:48;27.20;55.40
43987;DHT22;29650;47.378;8.300;2023-06-22T14:41:15;27.20;56.90
43987;DHT22;29650;47.378;8.300;2023-06-22T14:43:46;27.10;57.00
43987;DHT22;29650;47.378;8.300;2023-06-22T14:46:14;26.90;58.60
43987;DHT22;29650;47.378;8.300;2023-06-22T14:48:41;27.00;57.70
43987;DHT22;29650;47.378;8.300;2023-06-22T14:51:08;26.80;58.60
43987;DHT22;29650;47.378;8.300;2023-06-22T14:53:37;27.10;58.60
43987;DHT22;29650;47.378;8.300;2023-06-22T14:56:04;27.10;57.90
43987;DHT22;29650;47.378;8.300;2023-06-22T14:58:32;27.10;57.10
43987;DHT22;29650;47.378;8.300;2023-06-22T15:00:59;27.60;57.50
43987;DHT22;29650;47.378;8.300;2023-06-22T15:03:26;28.20;58.00
43987;DHT22;29650;47.378;8.300;2023-06-22T15:05:56;28.10;56.20
43987;DHT22;29650;47.378;8.300;2023-06-22T15:08:23;28.10;57.40
43987;DHT22;29650;47.378;8.300;2023-06-22T15:10:52;28.00;56.10
43987;DHT22;29650;47.378;8.300;2023-06-22T15:13:19;27.70;56.50
43987;DHT22;29650;47.378;8.300;2023-06-22T15:15:47;27.50;60.10
43987;DHT22;29650;47.378;8.300;2023-06-22T15:18:15;27.60;58.80
43987;DHT22;29650;47.378;8.300;2023-06-22T15:20:42;27.40;59.60
43987;DHT22;29650;47.378;8.300;2023-06-22T15:23:11;27.20;59.70
43987;DHT22;29650;47.378;8.300;2023-06-22T15:25:38;27.10;60.30
43987;DHT22;29650;47.378;8.300;2023-06-22T15:28:07;27.00;61.90
43987;DHT22;29650;47.378;8.300;2023-06-22T15:30:34;26.80;64.40
43987;DHT22;29650;47.378;8.300;2023-06-22T15:33:01;26.70;65.80
43987;DHT22;29650;47.378;8.300;2023-06-22T15:35:28;26.70;68.00